Airfield :
LOGIN :

Register | Disclaimer

   EN    FR    IT 

 










Legend :    VFR   Marginal VFR   IFR   Intensive IFR   Very Intensive IFR
Visi :
Ceiling :
>= 8 km
>= 3000ft
5 to 8 km
1000 to 3000 ft
1500m to 5 km
500 to 1000 ft
800 to 1500m
200 to 500 ft
< 800m
< 200 ft
Symbols :   Thunderstorms  Fog  Heavy snow  Heavy precipitations  Wind > 20 kt
SIGMETs :     Misc.  Thunderstorms  Icing  Turbulence  Mountain Waves  Volcanic Ashes







- Airport Elevation : 408 ft
- IATA code : FKB


EDSB - Karlsruhe Baden Baden

CURRENT METAR :
  • 260020Z AUTO 32002KT 5000 2100 // FEW031/// SCT051/// 03/03 Q1028

EXPIRED METARs :
  • 252350Z AUTO 13002KT 5000 1400 R03/2000D // BKN052/// 03/03 Q1028
  • 252320Z AUTO 00000KT 7000 2600 // FEW051/// 04/03 Q1027
  • 252250Z AUTO 31002KT 9999 // FEW036/// SCT048/// 04/03 Q1027
  • 252220Z AUTO 00000KT 9999 // SCT024/// BKN037/// OVC045/// 05/03 Q1027
  • 252150Z 20002KT 9999 BKN025 OVC034 04/04 Q1027

TAF TAF EDSB
Valid from the 25 at 18:00 until the 26 at 18:00 UTC


251700Z 2518/2618 30005KT 9999 BKN035
PROB40
TEMPO 2518/2520 30015G30KT SHRA SCT030CB
No reported NOTAMs for that airfield.



MET'MAP, your aeronautical weather chart ! - Copyright ORBIFLY December 2007 - Disclaimer

ORBIFLY MET'MAP TEAM :

Programming & Development : Alexandra Zaïnal
Concept & Development : Baudouin d'Aumeries
Co-Development & Prog : Marc-Olivier Méhu
Technical & hardware support : Manuel Goepfert

Contact : metmap@orbifly.com




SOURCES & CREDITS :

   NOAA